Time;durP1;ratioP1;P1;durP2;ratioP2;P2;SDS_P1;SDS_P2;PMS_P1;PMS_P2;Temp;Humidity;BMP_temperature;BMP_pressure;BME280_temperature;BME280_humidity;BME280_pressure;Samples;Min_cycle;Max_cycle;Signal;HPM_P1;HPM_P2
2023/12/10 00:02:15;;;;;;;764.77;716.93;;;7.00;99.90;;;;;;5004750;28;20104;-74
2023/12/10 00:04:42;;;;;;;767.17;720.57;;;7.00;99.90;;;;;;5008510;28;20492;-73
2023/12/10 00:07:08;;;;;;;836.20;773.75;;;7.00;99.90;;;;;;5010263;28;20048;-73
2023/12/10 00:09:34;;;;;;;875.13;799.83;;;7.00;99.90;;;;;;5012331;28;20034;-73
2023/12/10 00:12:00;;;;;;;830.20;757.90;;;7.10;99.90;;;;;;5012565;28;20037;-74
2023/12/10 00:14:26;;;;;;;839.93;776.47;;;7.20;99.90;;;;;;5013237;28;20487;-73
2023/12/10 00:16:51;;;;;;;931.03;831.67;;;7.20;99.90;;;;;;5009494;28;20045;-73
2023/12/10 00:19:17;;;;;;;982.57;877.27;;;7.30;99.90;;;;;;4990602;28;20046;-73
2023/12/10 00:21:44;;;;;;;818.27;761.20;;;7.30;99.90;;;;;;4992313;28;20048;-73
2023/12/10 00:24:10;;;;;;;991.15;891.45;;;7.30;99.90;;;;;;5011864;28;20052;-72
2023/12/10 00:26:35;;;;;;;908.50;827.67;;;7.30;99.90;;;;;;4995847;28;20038;-73
2023/12/10 00:29:01;;;;;;;827.47;771.77;;;7.30;99.90;;;;;;5012231;28;20136;-73
2023/12/10 00:31:27;;;;;;;843.57;783.33;;;7.20;99.90;;;;;;5011297;28;20139;-73
2023/12/10 00:33:53;;;;;;;945.17;852.33;;;7.20;99.90;;;;;;4993429;28;20542;-73
2023/12/10 00:36:18;;;;;;;929.40;844.43;;;7.10;99.90;;;;;;5012329;28;20445;-73
2023/12/10 00:38:45;;;;;;;887.03;824.60;;;7.10;99.90;;;;;;5011517;28;20136;-73
2023/12/10 00:41:11;;;;;;;964.30;887.38;;;7.00;99.90;;;;;;5011651;28;20049;-73
2023/12/10 00:43:41;;;;;;;939.17;868.58;;;6.90;99.90;;;;;;5011579;28;20502;-73
2023/12/10 00:46:08;;;;;;;973.25;891.53;;;6.90;99.90;;;;;;5012767;28;20387;-73
2023/12/10 00:48:34;;;;;;;938.17;860.13;;;6.80;99.90;;;;;;5011809;28;20034;-74
2023/12/10 00:51:00;;;;;;;998.33;915.30;;;6.80;99.90;;;;;;5010030;28;20442;-74
2023/12/10 00:53:26;;;;;;;958.47;881.28;;;6.70;99.90;;;;;;5012600;28;20460;-74
2023/12/10 00:55:52;;;;;;;910.87;842.37;;;6.70;99.90;;;;;;4994767;28;20045;-74
2023/12/10 00:58:18;;;;;;;943.70;876.23;;;6.70;99.90;;;;;;5011340;28;20042;-74
2023/12/10 01:00:44;;;;;;;954.37;883.27;;;6.70;99.90;;;;;;4992213;28;20133;-74
2023/12/10 01:03:09;;;;;;;918.57;849.30;;;6.70;99.90;;;;;;5010938;28;20038;-74
2023/12/10 01:05:35;;;;;;;916.43;849.67;;;6.70;99.90;;;;;;5007987;28;20369;-74
2023/12/10 01:08:01;;;;;;;934.77;865.63;;;6.70;99.90;;;;;;5009711;28;20053;-74
2023/12/10 01:10:27;;;;;;;925.70;859.30;;;6.70;99.90;;;;;;4992626;28;20034;-74
2023/12/10 01:12:52;;;;;;;1004.10;910.47;;;6.70;99.90;;;;;;5011161;28;20034;-74
2023/12/10 01:15:29;;;;;;;951.07;881.00;;;6.70;99.90;;;;;;5010262;28;20069;-74
2023/12/10 01:18:00;;;;;;;985.10;898.92;;;6.70;99.90;;;;;;5008902;28;20038;-75
2023/12/10 01:20:30;;;;;;;988.95;905.17;;;6.70;99.90;;;;;;5009115;28;20053;-74
2023/12/10 01:22:57;;;;;;;948.20;876.03;;;6.70;99.90;;;;;;5004197;28;20070;-74
2023/12/10 01:25:26;;;;;;;956.90;882.05;;;6.70;99.90;;;;;;4992584;28;20042;-75
2023/12/10 01:27:53;;;;;;;988.28;897.88;;;6.70;99.90;;;;;;4994557;28;20089;-75
2023/12/10 01:30:23;;;;;;;950.83;875.67;;;6.70;99.90;;;;;;5012091;28;20530;-75
2023/12/10 01:32:58;;;;;;;1172.82;999.90;;;6.70;99.90;;;;;;4987869;28;20034;-75
2023/12/10 01:35:24;;;;;;;;;;;6.70;99.90;;;;;;4988513;28;20041;-75
2023/12/10 01:37:50;;;;;;;919.67;852.07;;;6.70;99.90;;;;;;5010282;28;19924;-75
2023/12/10 01:40:16;;;;;;;1094.75;968.15;;;6.70;99.90;;;;;;4990907;28;20441;-76
2023/12/10 01:42:44;;;;;;;1000.55;920.30;;;6.70;99.90;;;;;;5018982;28;20457;-75
2023/12/10 01:45:10;;;;;;;957.20;883.97;;;6.70;99.90;;;;;;5012120;28;20093;-75
2023/12/10 01:47:40;;;;;;;1019.92;910.65;;;6.70;99.90;;;;;;5027104;28;20053;-75
2023/12/10 01:50:08;;;;;;;992.83;911.65;;;6.60;99.90;;;;;;4995150;28;20033;-75
2023/12/10 01:52:34;;;;;;;1042.55;942.78;;;6.60;99.90;;;;;;5009277;28;20047;-75
2023/12/10 01:55:03;;;;;;;1042.43;943.95;;;6.60;99.90;;;;;;5010110;28;20053;-75
2023/12/10 01:57:32;;;;;;;986.72;905.72;;;6.60;99.90;;;;;;4993986;28;20111;-74
2023/12/10 02:00:04;;;;;;;1047.50;945.13;;;6.60;99.90;;;;;;5010337;28;20095;-75
2023/12/10 02:02:30;;;;;;;1011.65;923.88;;;6.60;99.90;;;;;;4992208;28;20084;-74
2023/12/10 02:04:56;;;;;;;1039.03;942.27;;;6.60;99.90;;;;;;5006122;28;20076;-75
2023/12/10 02:07:22;;;;;;;985.65;906.80;;;6.60;99.90;;;;;;5010829;28;20126;-75
2023/12/10 02:09:48;;;;;;;1049.53;954.23;;;6.60;99.90;;;;;;4994693;28;20125;-76
2023/12/10 02:12:14;;;;;;;987.58;907.63;;;6.60;99.90;;;;;;5011266;28;20114;-75
2023/12/10 02:14:40;;;;;;;952.13;878.58;;;6.60;99.90;;;;;;5012571;28;20045;-75
2023/12/10 02:17:06;;;;;;;998.50;917.10;;;6.60;99.90;;;;;;5011024;28;20441;-75
2023/12/10 02:19:33;;;;;;;956.77;881.73;;;6.60;99.90;;;;;;5010554;28;20100;-75
2023/12/10 02:22:01;;;;;;;1066.18;954.67;;;6.60;99.90;;;;;;5006972;28;20052;-75
2023/12/10 02:24:35;;;;;;;984.47;901.92;;;6.60;99.90;;;;;;4991860;28;20077;-75
2023/12/10 02:27:02;;;;;;;1017.17;934.38;;;6.60;99.90;;;;;;4988432;28;20128;-75
2023/12/10 02:29:27;;;;;;;975.63;895.92;;;6.60;99.90;;;;;;5006290;28;20049;-75
2023/12/10 02:31:54;;;;;;;1018.53;932.93;;;6.60;99.90;;;;;;5006538;28;20413;-76
2023/12/10 02:34:20;;;;;;;1047.32;944.05;;;6.60;99.90;;;;;;5004011;28;20406;-75
2023/12/10 02:36:46;;;;;;;1008.10;924.50;;;6.50;99.90;;;;;;5008858;28;20080;-76
2023/12/10 02:39:12;;;;;;;1077.53;978.00;;;6.50;99.90;;;;;;5002077;28;20144;-75
2023/12/10 02:41:38;;;;;;;1083.83;982.40;;;6.60;99.90;;;;;;4998600;28;20045;-75
2023/12/10 02:44:04;;;;;;;1023.97;927.93;;;6.60;99.90;;;;;;5005283;28;20458;-75
2023/12/10 02:46:29;;;;;;;1781.13;999.90;;;6.60;99.90;;;;;;5012133;28;20038;-75
2023/12/10 02:48:55;;;;;;;1096.67;976.30;;;6.60;99.90;;;;;;5010862;28;20042;-75
2023/12/10 02:51:21;;;;;;;1070.37;967.27;;;6.60;99.90;;;;;;5001777;28;20050;-76
2023/12/10 02:53:46;;;;;;;1129.63;999.90;;;6.70;99.90;;;;;;5008803;28;20041;-76
2023/12/10 02:56:12;;;;;;;1053.77;954.83;;;6.70;99.90;;;;;;5007101;28;20034;-76
2023/12/10 02:58:38;;;;;;;1176.17;999.90;;;6.70;99.90;;;;;;5008016;28;20073;-76
2023/12/10 03:01:04;;;;;;;1113.80;993.70;;;6.70;99.90;;;;;;5006356;28;20030;-75
2023/12/10 03:03:30;;;;;;;1522.10;999.90;;;6.70;99.90;;;;;;4989579;28;20049;-75
2023/12/10 03:05:57;;;;;;;1323.90;999.90;;;6.70;99.90;;;;;;5011031;28;20033;-76
2023/12/10 03:08:22;;;;;;;1226.43;991.65;;;6.70;99.90;;;;;;4991264;28;20041;-76
2023/12/10 03:10:48;;;;;;;1423.10;999.90;;;6.70;99.90;;;;;;5005616;28;20184;-76
2023/12/10 03:13:14;;;;;;;1655.03;999.90;;;6.70;99.90;;;;;;5012331;28;20430;-76
2023/12/10 03:15:39;;;;;;;1659.10;999.90;;;6.70;99.90;;;;;;4993603;28;20142;-76
2023/12/10 03:18:07;;;;;;;1183.50;999.90;;;6.80;99.90;;;;;;4993401;28;20034;-76
2023/12/10 03:20:32;;;;;;;1321.13;999.90;;;6.80;99.90;;;;;;5009929;28;20050;-76
2023/12/10 03:22:58;;;;;;;1406.17;987.97;;;6.90;99.90;;;;;;4994250;28;20048;-76
2023/12/10 03:25:24;;;;;;;1342.28;999.90;;;6.90;99.90;;;;;;4992059;28;20494;-76
2023/12/10 03:27:50;;;;;;;1714.63;999.90;;;6.90;99.90;;;;;;5009923;28;20056;-76
2023/12/10 03:30:15;;;;;;;1370.97;999.90;;;7.00;99.90;;;;;;5006116;28;20042;-76
2023/12/10 03:32:41;;;;;;;1282.27;999.90;;;7.10;99.90;;;;;;5009475;28;20093;-76
2023/12/10 03:35:07;;;;;;;1779.77;999.90;;;7.10;99.90;;;;;;5007516;28;20132;-76
2023/12/10 03:37:33;;;;;;;1999.90;999.90;;;7.10;99.90;;;;;;4992760;28;20037;-76
2023/12/10 03:39:58;;;;;;;1950.77;999.90;;;7.20;99.90;;;;;;4997850;28;20041;-76
2023/12/10 03:42:24;;;;;;;1961.83;999.90;;;7.20;99.90;;;;;;5007529;28;20494;-76
2023/12/10 03:44:50;;;;;;;1395.43;999.90;;;7.20;99.90;;;;;;4997587;28;20073;-77
2023/12/10 03:47:15;;;;;;;1110.07;991.93;;;7.20;99.90;;;;;;5012733;28;20442;-77
2023/12/10 03:49:41;;;;;;;1167.80;938.03;;;7.20;99.90;;;;;;5012110;28;20045;-77
2023/12/10 03:52:07;;;;;;;1045.77;948.77;;;7.20;99.90;;;;;;5013452;28;20048;-76
2023/12/10 03:54:33;;;;;;;1292.57;999.90;;;7.20;99.90;;;;;;5013102;28;20484;-76
2023/12/10 03:56:58;;;;;;;1314.73;999.90;;;7.20;99.90;;;;;;4991463;28;20045;-76
2023/12/10 03:59:24;;;;;;;1999.90;999.90;;;7.20;99.90;;;;;;4997481;28;20498;-76
2023/12/10 04:01:50;;;;;;;1067.03;966.73;;;7.20;99.90;;;;;;4996970;28;20065;-76
2023/12/10 04:04:15;;;;;;;1179.30;987.43;;;7.20;99.90;;;;;;5010701;28;20110;-76
2023/12/10 04:06:42;;;;;;;1069.00;945.73;;;7.30;99.90;;;;;;5007657;28;20042;-76
2023/12/10 04:09:08;;;;;;;1112.53;992.92;;;7.30;99.90;;;;;;5010769;28;20129;-75
2023/12/10 04:11:34;;;;;;;1636.03;999.90;;;7.30;99.90;;;;;;4996712;28;20073;-77
2023/12/10 04:14:00;;;;;;;1999.90;999.90;;;7.30;99.90;;;;;;5013941;28;20069;-76
2023/12/10 04:16:26;;;;;;;1071.17;966.83;;;7.30;99.90;;;;;;5009735;28;20069;-75
2023/12/10 04:18:52;;;;;;;1197.65;990.13;;;7.30;99.90;;;;;;4996524;28;20050;-76
2023/12/10 04:21:20;;;;;;;1270.13;999.90;;;7.30;99.90;;;;;;5006724;28;20042;-76
2023/12/10 04:23:45;;;;;;;1999.90;999.90;;;7.40;99.90;;;;;;5000123;28;20675;-77
2023/12/10 04:26:11;;;;;;;1058.83;955.60;;;7.40;99.90;;;;;;5012636;28;20103;-77
2023/12/10 04:28:41;;;;;;;1503.30;999.90;;;7.40;99.90;;;;;;4996038;28;20100;-75
2023/12/10 04:31:07;;;;;;;1077.93;968.90;;;7.40;99.90;;;;;;5009127;28;20048;-76
2023/12/10 04:33:33;;;;;;;1091.90;975.93;;;7.40;99.90;;;;;;5012579;28;20038;-77
2023/12/10 04:35:59;;;;;;;1418.28;999.90;;;7.40;99.90;;;;;;5012851;28;20037;-77
2023/12/10 04:38:25;;;;;;;1273.68;999.90;;;7.40;99.90;;;;;;4996078;28;20407;-77
2023/12/10 04:40:51;;;;;;;1117.45;990.72;;;7.40;99.90;;;;;;5008588;28;20049;-76
2023/12/10 04:43:17;;;;;;;1067.30;965.07;;;7.40;99.90;;;;;;5018105;28;20038;-76
2023/12/10 04:45:42;;;;;;;1009.47;923.20;;;7.40;99.90;;;;;;4996134;28;20045;-76
2023/12/10 04:48:08;;;;;;;1370.10;984.83;;;7.40;99.90;;;;;;5013295;28;20033;-75
2023/12/10 04:50:34;;;;;;;1096.00;988.20;;;7.40;99.90;;;;;;5012522;28;20038;-76
2023/12/10 04:53:00;;;;;;;1999.90;999.90;;;7.40;99.90;;;;;;4995818;28;20540;-75
2023/12/10 04:55:25;;;;;;;1095.90;990.17;;;7.40;99.90;;;;;;5012912;28;20065;-76
2023/12/10 04:57:51;;;;;;;1342.23;999.90;;;7.40;99.90;;;;;;5007163;28;20041;-76
2023/12/10 05:00:17;;;;;;;1385.80;999.90;;;7.50;99.90;;;;;;5011104;28;20513;-76
2023/12/10 05:02:42;;;;;;;1063.43;962.17;;;7.50;99.90;;;;;;4996165;28;20979;-76
2023/12/10 05:05:08;;;;;;;1463.17;996.37;;;7.50;99.90;;;;;;5010383;28;20060;-76
2023/12/10 05:07:35;;;;;;;1524.32;999.90;;;7.50;99.90;;;;;;4995913;28;20056;-76
2023/12/10 05:10:00;;;;;;;1072.50;962.60;;;7.50;99.90;;;;;;5010897;28;20034;-75
2023/12/10 05:12:26;;;;;;;1242.87;999.90;;;7.50;99.90;;;;;;4996210;28;20053;-76
2023/12/10 05:14:52;;;;;;;1266.03;999.90;;;7.50;99.90;;;;;;5008255;28;20034;-75
2023/12/10 05:17:18;;;;;;;1099.13;987.73;;;7.50;99.90;;;;;;4994613;28;20407;-75
2023/12/10 05:19:43;;;;;;;1145.43;979.17;;;7.50;99.90;;;;;;5012086;28;20033;-75
2023/12/10 05:22:09;;;;;;;1419.60;953.80;;;7.50;99.90;;;;;;4996126;28;20104;-75
2023/12/10 05:24:35;;;;;;;1098.33;993.00;;;7.50;99.90;;;;;;5012121;28;20093;-75
2023/12/10 05:27:01;;;;;;;1075.97;976.57;;;7.50;99.90;;;;;;5005708;28;20038;-74
2023/12/10 05:29:27;;;;;;;1085.22;970.03;;;7.50;99.90;;;;;;4990158;28;20058;-74
2023/12/10 05:31:53;;;;;;;1444.70;999.90;;;7.50;99.90;;;;;;5005415;28;20046;-75
2023/12/10 05:34:19;;;;;;;1202.33;991.50;;;7.50;99.90;;;;;;5009574;28;20038;-75
2023/12/10 05:36:45;;;;;;;1602.03;999.90;;;7.50;99.90;;;;;;4992146;28;20088;-75
2023/12/10 05:39:10;;;;;;;1484.13;999.90;;;7.50;99.90;;;;;;5008482;28;20084;-76
2023/12/10 05:41:37;;;;;;;1274.80;998.27;;;7.50;99.90;;;;;;5005020;28;20037;-73
2023/12/10 05:44:02;;;;;;;1151.35;989.58;;;7.50;99.90;;;;;;5006696;28;20046;-74
2023/12/10 05:46:28;;;;;;;1121.10;997.33;;;7.60;99.90;;;;;;5010109;28;20045;-75
2023/12/10 05:48:54;;;;;;;1043.83;950.47;;;7.50;99.90;;;;;;5009862;28;20046;-75
2023/12/10 05:51:19;;;;;;;1061.90;962.57;;;7.50;99.90;;;;;;5012060;28;20108;-75
2023/12/10 05:53:45;;;;;;;1095.23;985.70;;;7.50;99.90;;;;;;5010546;28;20053;-75
2023/12/10 05:56:11;;;;;;;1113.17;995.57;;;7.50;99.90;;;;;;5014551;28;20129;-75
2023/12/10 05:58:37;;;;;;;1017.07;928.70;;;7.50;99.90;;;;;;5011774;28;20038;-74
2023/12/10 06:01:02;;;;;;;1997.37;999.90;;;7.50;99.90;;;;;;5010560;28;20506;-73
2023/12/10 06:03:28;;;;;;;1861.77;999.90;;;7.50;99.90;;;;;;4994436;28;20084;-74
2023/12/10 06:05:54;;;;;;;1251.67;999.90;;;7.50;99.90;;;;;;4989430;28;20065;-73
2023/12/10 06:08:20;;;;;;;1121.53;999.10;;;7.50;99.90;;;;;;4990749;28;20046;-74
2023/12/10 06:10:46;;;;;;;1452.73;999.90;;;7.50;99.90;;;;;;4988639;28;20038;-74
2023/12/10 06:13:11;;;;;;;1099.90;976.77;;;7.50;99.90;;;;;;5011718;28;20048;-74
2023/12/10 06:15:37;;;;;;;1358.07;999.90;;;7.40;99.90;;;;;;5011885;28;20045;-74
2023/12/10 06:18:03;;;;;;;1383.05;999.90;;;7.40;99.90;;;;;;5013475;28;20505;-74
2023/12/10 06:20:29;;;;;;;1143.10;994.30;;;7.40;99.90;;;;;;4992382;28;20042;-74
2023/12/10 06:22:55;;;;;;;1008.17;909.50;;;7.40;99.90;;;;;;4993391;28;20033;-74
2023/12/10 06:25:20;;;;;;;1299.47;999.90;;;7.40;99.90;;;;;;5010304;28;20041;-74
2023/12/10 06:27:46;;;;;;;1055.33;955.07;;;7.40;99.90;;;;;;5008430;28;20147;-74
2023/12/10 06:30:12;;;;;;;1062.70;963.27;;;7.40;99.90;;;;;;5012065;28;20049;-74
2023/12/10 06:32:38;;;;;;;1994.73;999.90;;;7.40;99.90;;;;;;5011120;28;20073;-74
2023/12/10 06:35:04;;;;;;;1064.07;957.80;;;7.40;99.90;;;;;;5006259;28;20482;-74
2023/12/10 06:37:31;;;;;;;1715.22;996.72;;;7.40;99.90;;;;;;5006413;28;20095;-73
2023/12/10 06:39:57;;;;;;;1501.50;997.58;;;7.50;99.90;;;;;;5005763;28;20553;-73
2023/12/10 06:42:23;;;;;;;1222.53;976.70;;;7.40;99.90;;;;;;5010087;28;20038;-73
2023/12/10 06:44:49;;;;;;;1198.87;993.43;;;7.40;99.90;;;;;;5011514;28;20049;-73
2023/12/10 06:47:14;;;;;;;1504.57;998.70;;;7.40;99.90;;;;;;5006157;28;20108;-74
2023/12/10 06:49:40;;;;;;;1118.93;980.97;;;7.40;99.90;;;;;;4995326;28;20049;-73
2023/12/10 06:52:06;;;;;;;1077.73;965.27;;;7.50;99.90;;;;;;4993377;28;20045;-73
2023/12/10 06:54:31;;;;;;;1044.30;942.37;;;7.40;99.90;;;;;;5011165;28;20045;-74
2023/12/10 06:56:57;;;;;;;1023.77;929.33;;;7.40;99.90;;;;;;4993600;28;20077;-73
2023/12/10 06:59:23;;;;;;;1030.00;931.93;;;7.40;99.90;;;;;;5011769;28;20041;-73
2023/12/10 07:01:48;;;;;;;1999.90;999.90;;;7.40;99.90;;;;;;5011018;28;20046;-73
2023/12/10 07:04:14;;;;;;;1081.97;968.47;;;7.40;99.90;;;;;;5011104;28;20414;-74
2023/12/10 07:06:40;;;;;;;1067.07;950.57;;;7.40;99.90;;;;;;5008429;28;20099;-73
2023/12/10 07:09:06;;;;;;;1026.37;936.83;;;7.40;99.90;;;;;;5008938;28;20375;-74
2023/12/10 07:11:33;;;;;;;1054.55;955.20;;;7.40;99.90;;;;;;5009212;28;20061;-74
2023/12/10 07:13:58;;;;;;;1193.95;978.85;;;7.50;99.90;;;;;;5009237;28;20135;-74
2023/12/10 07:16:24;;;;;;;985.93;907.40;;;7.40;99.90;;;;;;4980576;28;20069;-74
2023/12/10 07:18:50;;;;;;;1460.40;999.90;;;7.50;99.90;;;;;;4992452;28;20063;-74
2023/12/10 07:21:16;;;;;;;1101.40;995.63;;;7.40;99.90;;;;;;5008992;28;20057;-73
2023/12/10 07:23:41;;;;;;;1433.40;974.00;;;7.40;99.90;;;;;;5012627;28;20100;-74
2023/12/10 07:26:07;;;;;;;1037.63;943.23;;;7.40;99.90;;;;;;5007228;28;20041;-74
2023/12/10 07:28:33;;;;;;;1088.67;974.43;;;7.40;99.90;;;;;;5008896;28;20053;-74
2023/12/10 07:30:58;;;;;;;1999.90;999.90;;;7.40;99.90;;;;;;5009562;28;20034;-74
2023/12/10 07:33:24;;;;;;;1134.33;999.90;;;7.40;99.90;;;;;;5005967;28;20080;-74
2023/12/10 07:35:50;;;;;;;1734.23;999.90;;;7.30;99.90;;;;;;5006556;28;20525;-74
2023/12/10 07:38:16;;;;;;;1279.57;999.90;;;7.30;99.90;;;;;;5007110;28;20442;-74
2023/12/10 07:40:41;;;;;;;1366.03;989.20;;;7.30;99.90;;;;;;4992952;28;20320;-74
2023/12/10 07:43:07;;;;;;;1349.23;999.90;;;7.30;99.90;;;;;;5005750;28;20500;-74
2023/12/10 07:45:33;;;;;;;1158.43;998.53;;;7.30;99.90;;;;;;5009160;28;20045;-74
2023/12/10 07:47:59;;;;;;;1119.60;996.13;;;7.40;99.90;;;;;;4993738;28;20053;-74
2023/12/10 07:50:24;;;;;;;1956.93;999.90;;;7.30;99.90;;;;;;5007896;28;20038;-74
2023/12/10 07:52:50;;;;;;;1686.30;999.90;;;7.30;99.90;;;;;;5010224;28;20577;-73
2023/12/10 07:55:16;;;;;;;1185.90;998.37;;;7.30;99.90;;;;;;5007889;28;20128;-74
2023/12/10 07:57:42;;;;;;;1105.63;989.07;;;7.30;99.90;;;;;;5009718;28;20042;-74
2023/12/10 08:00:08;;;;;;;1407.20;999.47;;;7.30;99.90;;;;;;5010068;28;20100;-74
2023/12/10 08:02:34;;;;;;;1062.78;958.47;;;7.30;99.90;;;;;;5005675;28;20487;-74
2023/12/10 08:05:00;;;;;;;1042.93;948.67;;;7.20;99.90;;;;;;5009167;28;20049;-74
2023/12/10 08:07:26;;;;;;;1037.47;938.57;;;7.20;99.90;;;;;;4993279;28;20052;-74
2023/12/10 08:09:52;;;;;;;1595.70;957.20;;;7.20;99.90;;;;;;4988922;28;20038;-74
2023/12/10 08:12:17;;;;;;;928.77;859.00;;;7.20;99.90;;;;;;4986956;28;20158;-74
2023/12/10 08:14:44;;;;;;;1040.30;934.97;;;7.20;99.90;;;;;;4995418;28;20504;-74
2023/12/10 08:17:10;;;;;;;982.25;900.60;;;7.20;99.90;;;;;;4992275;28;20034;-74
2023/12/10 08:19:37;;;;;;;959.33;885.25;;;7.30;99.90;;;;;;5009148;28;20112;-74
2023/12/10 08:22:03;;;;;;;990.97;908.58;;;7.30;99.90;;;;;;5009401;28;20490;-74
2023/12/10 08:24:30;;;;;;;992.90;908.15;;;7.30;99.90;;;;;;5009578;28;20046;-74
2023/12/10 08:26:56;;;;;;;985.28;901.22;;;7.30;99.90;;;;;;4989752;28;20104;-74
2023/12/10 08:29:22;;;;;;;946.57;872.43;;;7.30;99.90;;;;;;4997732;28;20054;-74
2023/12/10 08:31:48;;;;;;;1033.83;926.70;;;7.30;99.90;;;;;;4996640;28;20038;-74
2023/12/10 08:34:14;;;;;;;1069.22;932.00;;;7.30;99.90;;;;;;5013037;28;20038;-74
2023/12/10 08:36:40;;;;;;;946.70;875.50;;;7.30;99.90;;;;;;4992212;28;20132;-73
2023/12/10 08:39:06;;;;;;;996.08;908.60;;;7.30;99.90;;;;;;4994711;28;20072;-74
2023/12/10 08:41:32;;;;;;;913.22;845.28;;;7.30;99.90;;;;;;5017952;28;20045;-74
2023/12/10 08:43:58;;;;;;;1093.35;918.40;;;7.30;99.90;;;;;;5013427;28;20417;-74
2023/12/10 08:46:24;;;;;;;1006.13;913.77;;;7.30;99.90;;;;;;4995828;28;20045;-74
2023/12/10 08:48:50;;;;;;;1061.63;951.30;;;7.30;99.90;;;;;;5012908;28;20470;-74
2023/12/10 08:51:16;;;;;;;941.90;871.08;;;7.30;99.90;;;;;;5013119;28;20046;-73
2023/12/10 08:53:42;;;;;;;1057.63;962.90;;;7.30;99.90;;;;;;5012149;28;20045;-74
2023/12/10 08:56:08;;;;;;;884.50;820.67;;;7.30;99.90;;;;;;5010087;28;20125;-73
2023/12/10 08:58:34;;;;;;;969.35;878.60;;;7.30;99.90;;;;;;5012060;28;20509;-73
2023/12/10 09:01:00;;;;;;;879.87;812.80;;;7.30;99.90;;;;;;5012676;28;20030;-74
2023/12/10 09:03:25;;;;;;;923.57;855.30;;;7.30;99.90;;;;;;4995495;28;20038;-73
2023/12/10 09:05:51;;;;;;;916.37;847.27;;;7.30;99.90;;;;;;5012480;28;20382;-74
2023/12/10 09:08:17;;;;;;;1032.43;937.80;;;7.30;99.90;;;;;;4992887;28;20065;-74
2023/12/10 09:10:44;;;;;;;928.40;858.17;;;7.30;99.90;;;;;;4995788;28;20133;-73
2023/12/10 09:13:10;;;;;;;969.65;889.85;;;7.30;99.90;;;;;;5012354;28;20791;-73
2023/12/10 09:15:35;;;;;;;986.33;909.13;;;7.30;99.90;;;;;;4995011;28;20038;-74
2023/12/10 09:18:02;;;;;;;1194.40;971.00;;;7.30;99.90;;;;;;5011439;28;20045;-74
2023/12/10 09:20:28;;;;;;;999.00;913.70;;;7.30;99.90;;;;;;4998188;28;20046;-74
2023/12/10 09:22:53;;;;;;;968.13;890.23;;;7.30;99.90;;;;;;5011956;28;20462;-73
2023/12/10 09:25:19;;;;;;;955.17;877.53;;;7.40;99.90;;;;;;4995277;28;20046;-73
2023/12/10 09:27:45;;;;;;;923.07;845.60;;;7.40;99.90;;;;;;5010909;28;20034;-75
2023/12/10 09:30:11;;;;;;;1007.57;919.53;;;7.40;99.90;;;;;;5012109;28;20050;-74
2023/12/10 09:32:39;;;;;;;959.03;878.33;;;7.40;99.90;;;;;;5012147;28;20037;-74
2023/12/10 09:35:05;;;;;;;983.85;907.05;;;7.40;99.90;;;;;;4991654;28;20041;-73
2023/12/10 09:37:31;;;;;;;1069.28;944.15;;;7.40;99.90;;;;;;5012313;28;20092;-73
2023/12/10 09:39:56;;;;;;;1123.87;932.70;;;7.40;99.90;;;;;;5004295;28;20033;-74
2023/12/10 09:42:22;;;;;;;1003.33;915.43;;;7.30;99.90;;;;;;5016742;28;20080;-73
2023/12/10 09:44:48;;;;;;;988.50;904.80;;;7.30;99.90;;;;;;5006797;28;20042;-73
2023/12/10 09:47:16;;;;;;;991.93;903.07;;;7.30;99.90;;;;;;5014203;28;20029;-73
2023/12/10 09:49:42;;;;;;;997.20;890.17;;;7.30;99.90;;;;;;5011037;28;20054;-74
2023/12/10 09:52:09;;;;;;;1011.80;904.47;;;7.30;99.90;;;;;;5009454;28;20145;-74
2023/12/10 09:54:42;;;;;;;975.67;892.33;;;7.30;99.90;;;;;;4999153;28;20281;-74
2023/12/10 09:57:08;;;;;;;974.72;889.15;;;7.40;99.90;;;;;;4990093;28;20096;-73
2023/12/10 09:59:35;;;;;;;1031.35;924.63;;;7.40;99.90;;;;;;5011801;28;20038;-73
2023/12/10 10:02:05;;;;;;;1043.93;943.85;;;7.40;99.90;;;;;;4993229;28;20045;-74
2023/12/10 10:04:30;;;;;;;1237.28;947.80;;;7.40;99.90;;;;;;4997556;28;20509;-74
2023/12/10 10:06:57;;;;;;;960.23;884.07;;;7.40;99.90;;;;;;5008790;28;20069;-74
2023/12/10 10:09:23;;;;;;;942.15;867.80;;;7.40;99.90;;;;;;5007455;28;20046;-73
2023/12/10 10:11:50;;;;;;;1069.57;959.92;;;7.40;99.90;;;;;;5006534;28;20103;-74
2023/12/10 10:14:17;;;;;;;1120.63;934.30;;;7.50;99.90;;;;;;5005862;28;20108;-74
2023/12/10 10:16:48;;;;;;;964.58;887.88;;;7.50;99.90;;;;;;5007049;28;20526;-73
2023/12/10 10:19:14;;;;;;;1016.63;926.20;;;7.50;99.90;;;;;;4990588;28;20125;-74
2023/12/10 10:21:44;;;;;;;1029.97;934.58;;;7.50;99.90;;;;;;5005689;28;20622;-73
2023/12/10 10:24:11;;;;;;;964.90;889.90;;;7.50;99.90;;;;;;4987745;28;20042;-73
2023/12/10 10:26:38;;;;;;;940.47;866.13;;;7.50;99.90;;;;;;5006430;28;20498;-74
2023/12/10 10:29:07;;;;;;;967.90;888.30;;;7.50;99.90;;;;;;5004971;28;20106;-74
2023/12/10 10:31:34;;;;;;;1007.33;915.17;;;7.60;99.90;;;;;;5004012;28;20109;-74
2023/12/10 10:34:04;;;;;;;1029.88;934.60;;;7.60;99.90;;;;;;4986210;28;20185;-74
2023/12/10 10:36:31;;;;;;;998.20;900.30;;;7.70;99.90;;;;;;5007990;28;20513;-74
2023/12/10 10:38:57;;;;;;;1045.00;919.83;;;7.70;99.90;;;;;;5006944;28;20121;-74
2023/12/10 10:41:24;;;;;;;1189.30;962.90;;;7.70;99.90;;;;;;4991900;28;20192;-74
2023/12/10 10:43:50;;;;;;;1007.17;918.83;;;7.70;99.90;;;;;;5007801;28;20523;-74
2023/12/10 10:46:20;;;;;;;1013.53;918.87;;;7.70;99.90;;;;;;5007041;28;20046;-74
2023/12/10 10:48:51;;;;;;;947.17;869.28;;;7.70;99.90;;;;;;4980746;28;20038;-74
2023/12/10 10:51:27;;;;;;;959.15;878.90;;;7.70;99.90;;;;;;4989610;28;20053;-73
2023/12/10 10:53:58;;;;;;;1018.53;921.00;;;7.60;99.90;;;;;;5008455;28;20439;-73
2023/12/10 10:56:25;;;;;;;1336.00;996.00;;;7.70;99.90;;;;;;5007182;28;20292;-74
2023/12/10 10:58:50;;;;;;;1065.88;953.60;;;7.70;99.90;;;;;;5007575;28;20447;-75
2023/12/10 11:01:36;;;;;;;978.17;895.57;;;7.70;99.90;;;;;;5003597;28;20120;-74
2023/12/10 11:04:01;;;;;;;980.75;898.58;;;7.70;99.90;;;;;;4990606;28;20084;-74
2023/12/10 11:06:30;;;;;;;956.10;878.37;;;7.70;99.90;;;;;;5007657;28;20073;-74
2023/12/10 11:09:01;;;;;;;975.00;899.40;;;7.70;99.90;;;;;;4990850;28;20034;-74
2023/12/10 11:11:27;;;;;;;998.23;916.37;;;7.80;99.90;;;;;;5007853;28;20522;-74
2023/12/10 11:13:54;;;;;;;1023.30;927.50;;;7.70;99.90;;;;;;5007206;28;20341;-74
2023/12/10 11:16:23;;;;;;;1690.97;999.90;;;7.80;99.90;;;;;;5002239;28;20042;-74
2023/12/10 11:18:58;;;;;;;1032.05;935.53;;;7.70;99.90;;;;;;5004039;28;20360;-73
2023/12/10 11:21:24;;;;;;;845.80;789.33;;;7.70;99.90;;;;;;5001252;28;20326;-74
2023/12/10 11:23:50;;;;;;;909.03;837.08;;;7.70;99.90;;;;;;4990823;28;20049;-74
2023/12/10 11:26:16;;;;;;;910.37;842.60;;;7.80;99.90;;;;;;5001390;28;20108;-73
2023/12/10 11:28:42;;;;;;;916.17;843.33;;;7.80;99.90;;;;;;5004185;28;20430;-73
2023/12/10 11:31:09;;;;;;;918.15;842.03;;;7.80;99.90;;;;;;5001332;28;20050;-73
2023/12/10 11:33:40;;;;;;;901.83;831.53;;;7.70;99.90;;;;;;4990875;28;20494;-73
2023/12/10 11:36:09;;;;;;;880.55;814.10;;;7.70;99.90;;;;;;4991117;28;20048;-74
2023/12/10 11:38:36;;;;;;;950.13;874.87;;;7.60;99.90;;;;;;4988816;28;20050;-74
2023/12/10 11:41:03;;;;;;;974.30;891.50;;;7.60;99.90;;;;;;5005268;28;20300;-74
2023/12/10 11:43:29;;;;;;;939.78;857.92;;;7.50;99.90;;;;;;5004028;28;20162;-73
2023/12/10 11:45:56;;;;;;;868.70;807.43;;;7.50;99.90;;;;;;5007138;28;20049;-74
2023/12/10 11:48:22;;;;;;;966.00;884.10;;;7.40;99.90;;;;;;4990438;28;20466;-74
2023/12/10 11:50:49;;;;;;;911.67;842.77;;;7.40;99.90;;;;;;4993061;28;20146;-73
2023/12/10 11:53:18;;;;;;;885.75;822.08;;;7.40;99.90;;;;;;5008380;28;20289;-74
2023/12/10 11:55:44;;;;;;;1099.18;848.28;;;7.40;99.90;;;;;;5007769;28;20737;-74
2023/12/10 11:58:10;;;;;;;892.88;819.97;;;7.40;99.90;;;;;;5008599;28;20050;-73
2023/12/10 12:00:36;;;;;;;843.53;780.60;;;7.40;99.90;;;;;;5008668;28;20129;-74
2023/12/10 12:03:05;;;;;;;991.90;897.43;;;7.40;99.90;;;;;;5005553;28;20049;-73
2023/12/10 12:05:32;;;;;;;901.55;836.08;;;7.50;99.90;;;;;;4994563;28;20054;-73
2023/12/10 12:07:59;;;;;;;857.43;794.87;;;7.50;99.90;;;;;;5011047;28;20054;-73